Tecumseh, Canada
Current Conditions -  °F | °C
As of 9:00 PM on Monday 22 Dec 2014 (Local Time) from CYQG Reporting Station
Overcast Overcast  
Wind Chill: 29°   Ceiling: 8100
Heat Index: 36°   Visibility: 8mi
Dew Point: 32°   Wind: 8mph
Humidity: 87%   Direction: 70°ENE
Pressure: 29.9"   Gusts: NA
Location:  42.32°N, 82.89°W
Report Text: CYQG 230200Z 07007KT 8SM OVC081 02/00 A2990 RMK AC8 SLP133
Loading
Personal Weather Stations






























Interactive Weather Map New forecast layout! Learn more

10-Day Weather Forecast

Advertisements
Track Severe Weather on mobile